sensor_id;sensor_type;location;lat;lon;timestamp;temperature;humidity
6738;DHT22;3406;49.902;8.596;2023-06-26T00:00:45;23.00;54.80
6738;DHT22;3406;49.902;8.596;2023-06-26T00:03:12;22.90;55.00
6738;DHT22;3406;49.902;8.596;2023-06-26T00:05:40;22.90;55.10
6738;DHT22;3406;49.902;8.596;2023-06-26T00:08:07;22.80;55.20
6738;DHT22;3406;49.902;8.596;2023-06-26T00:10:34;22.70;55.40
6738;DHT22;3406;49.902;8.596;2023-06-26T00:13:02;22.70;55.60
6738;DHT22;3406;49.902;8.596;2023-06-26T00:15:29;22.60;55.70
6738;DHT22;3406;49.902;8.596;2023-06-26T00:17:57;22.50;55.90
6738;DHT22;3406;49.902;8.596;2023-06-26T00:20:23;22.40;56.00
6738;DHT22;3406;49.902;8.596;2023-06-26T00:22:51;22.40;56.20
6738;DHT22;3406;49.902;8.596;2023-06-26T00:25:19;22.30;56.30
6738;DHT22;3406;49.902;8.596;2023-06-26T00:27:45;22.30;56.60
6738;DHT22;3406;49.902;8.596;2023-06-26T00:30:13;22.20;56.60
6738;DHT22;3406;49.902;8.596;2023-06-26T00:32:40;22.10;56.70
6738;DHT22;3406;49.902;8.596;2023-06-26T00:35:07;22.10;56.90
6738;DHT22;3406;49.902;8.596;2023-06-26T00:37:34;22.00;57.00
6738;DHT22;3406;49.902;8.596;2023-06-26T00:40:00;22.00;57.20
6738;DHT22;3406;49.902;8.596;2023-06-26T00:42:27;21.90;57.40
6738;DHT22;3406;49.902;8.596;2023-06-26T00:44:54;21.90;57.70
6738;DHT22;3406;49.902;8.596;2023-06-26T00:47:22;21.80;57.70
6738;DHT22;3406;49.902;8.596;2023-06-26T00:49:49;21.70;58.00
6738;DHT22;3406;49.902;8.596;2023-06-26T00:52:15;21.70;58.20
6738;DHT22;3406;49.902;8.596;2023-06-26T00:54:43;21.60;58.30
6738;DHT22;3406;49.902;8.596;2023-06-26T00:57:10;21.50;58.40
6738;DHT22;3406;49.902;8.596;2023-06-26T00:59:36;21.50;58.60
6738;DHT22;3406;49.902;8.596;2023-06-26T01:02:04;21.40;58.60
6738;DHT22;3406;49.902;8.596;2023-06-26T01:04:32;21.40;58.70
6738;DHT22;3406;49.902;8.596;2023-06-26T01:06:59;21.40;58.80
6738;DHT22;3406;49.902;8.596;2023-06-26T01:09:28;21.40;58.90
6738;DHT22;3406;49.902;8.596;2023-06-26T01:11:55;21.30;58.90
6738;DHT22;3406;49.902;8.596;2023-06-26T01:14:22;21.30;59.00
6738;DHT22;3406;49.902;8.596;2023-06-26T01:16:49;21.30;59.10
6738;DHT22;3406;49.902;8.596;2023-06-26T01:19:19;21.30;59.10
6738;DHT22;3406;49.902;8.596;2023-06-26T01:21:54;21.30;59.20
6738;DHT22;3406;49.902;8.596;2023-06-26T01:24:25;21.20;59.20
6738;DHT22;3406;49.902;8.596;2023-06-26T01:26:59;21.20;59.30
6738;DHT22;3406;49.902;8.596;2023-06-26T01:29:28;21.20;59.30
6738;DHT22;3406;49.902;8.596;2023-06-26T01:31:57;21.20;59.40
6738;DHT22;3406;49.902;8.596;2023-06-26T01:34:24;21.20;59.50
6738;DHT22;3406;49.902;8.596;2023-06-26T01:36:52;21.10;59.50
6738;DHT22;3406;49.902;8.596;2023-06-26T01:39:19;21.10;59.50
6738;DHT22;3406;49.902;8.596;2023-06-26T01:41:46;21.10;59.50
6738;DHT22;3406;49.902;8.596;2023-06-26T01:44:21;21.10;59.60
6738;DHT22;3406;49.902;8.596;2023-06-26T01:46:56;21.00;59.60
6738;DHT22;3406;49.902;8.596;2023-06-26T01:49:31;21.00;59.60
6738;DHT22;3406;49.902;8.596;2023-06-26T01:52:05;21.00;59.70
6738;DHT22;3406;49.902;8.596;2023-06-26T01:54:36;21.00;59.80
6738;DHT22;3406;49.902;8.596;2023-06-26T01:57:04;20.90;59.80
6738;DHT22;3406;49.902;8.596;2023-06-26T01:59:33;20.90;59.90
6738;DHT22;3406;49.902;8.596;2023-06-26T02:02:00;20.90;59.90
6738;DHT22;3406;49.902;8.596;2023-06-26T02:04:27;20.80;60.00
6738;DHT22;3406;49.902;8.596;2023-06-26T02:06:54;20.80;60.00
6738;DHT22;3406;49.902;8.596;2023-06-26T02:09:21;20.80;60.10
6738;DHT22;3406;49.902;8.596;2023-06-26T02:11:48;20.80;60.20
6738;DHT22;3406;49.902;8.596;2023-06-26T02:14:14;20.80;60.20
6738;DHT22;3406;49.902;8.596;2023-06-26T02:16:42;20.80;60.30
6738;DHT22;3406;49.902;8.596;2023-06-26T02:19:09;20.70;60.20
6738;DHT22;3406;49.902;8.596;2023-06-26T02:21:35;20.70;60.20
6738;DHT22;3406;49.902;8.596;2023-06-26T02:24:04;20.70;60.30
6738;DHT22;3406;49.902;8.596;2023-06-26T02:26:31;20.70;60.30
6738;DHT22;3406;49.902;8.596;2023-06-26T02:28:58;20.70;60.40
6738;DHT22;3406;49.902;8.596;2023-06-26T02:31:24;20.70;60.50
6738;DHT22;3406;49.902;8.596;2023-06-26T02:33:52;20.70;60.50
6738;DHT22;3406;49.902;8.596;2023-06-26T02:36:19;20.60;60.50
6738;DHT22;3406;49.902;8.596;2023-06-26T02:38:45;20.60;60.70
6738;DHT22;3406;49.902;8.596;2023-06-26T02:41:12;20.50;60.60
6738;DHT22;3406;49.902;8.596;2023-06-26T02:43:39;20.50;60.70
6738;DHT22;3406;49.902;8.596;2023-06-26T02:46:05;20.50;60.80
6738;DHT22;3406;49.902;8.596;2023-06-26T02:48:32;20.50;60.90
6738;DHT22;3406;49.902;8.596;2023-06-26T02:51:00;20.50;61.00
6738;DHT22;3406;49.902;8.596;2023-06-26T02:53:26;20.40;60.90
6738;DHT22;3406;49.902;8.596;2023-06-26T02:55:53;20.40;61.10
6738;DHT22;3406;49.902;8.596;2023-06-26T02:58:20;20.40;61.20
6738;DHT22;3406;49.902;8.596;2023-06-26T03:00:47;20.40;61.30
6738;DHT22;3406;49.902;8.596;2023-06-26T03:03:13;20.30;61.40
6738;DHT22;3406;49.902;8.596;2023-06-26T03:05:40;20.30;61.60
6738;DHT22;3406;49.902;8.596;2023-06-26T03:08:08;20.30;61.70
6738;DHT22;3406;49.902;8.596;2023-06-26T03:10:34;20.20;61.70
6738;DHT22;3406;49.902;8.596;2023-06-26T03:13:01;20.20;62.50
6738;DHT22;3406;49.902;8.596;2023-06-26T03:15:28;20.10;61.80
6738;DHT22;3406;49.902;8.596;2023-06-26T03:17:54;20.10;62.00
6738;DHT22;3406;49.902;8.596;2023-06-26T03:20:21;20.00;62.00
6738;DHT22;3406;49.902;8.596;2023-06-26T03:22:48;20.00;62.10
6738;DHT22;3406;49.902;8.596;2023-06-26T03:25:16;19.90;62.10
6738;DHT22;3406;49.902;8.596;2023-06-26T03:27:42;19.90;62.30
6738;DHT22;3406;49.902;8.596;2023-06-26T03:30:10;19.90;62.40
6738;DHT22;3406;49.902;8.596;2023-06-26T03:32:37;19.80;62.50
6738;DHT22;3406;49.902;8.596;2023-06-26T03:35:04;19.80;62.60
6738;DHT22;3406;49.902;8.596;2023-06-26T03:37:31;19.80;62.70
6738;DHT22;3406;49.902;8.596;2023-06-26T03:39:58;19.80;62.80
6738;DHT22;3406;49.902;8.596;2023-06-26T03:42:26;19.80;62.80
6738;DHT22;3406;49.902;8.596;2023-06-26T03:44:53;19.80;63.00
6738;DHT22;3406;49.902;8.596;2023-06-26T03:47:19;19.70;63.00
6738;DHT22;3406;49.902;8.596;2023-06-26T03:49:46;19.70;63.00
6738;DHT22;3406;49.902;8.596;2023-06-26T03:52:12;19.80;63.10
6738;DHT22;3406;49.902;8.596;2023-06-26T03:54:39;19.70;63.10
6738;DHT22;3406;49.902;8.596;2023-06-26T03:57:06;19.70;63.20
6738;DHT22;3406;49.902;8.596;2023-06-26T03:59:35;19.70;63.20
6738;DHT22;3406;49.902;8.596;2023-06-26T04:02:02;19.70;63.40
6738;DHT22;3406;49.902;8.596;2023-06-26T04:04:29;19.70;63.40
6738;DHT22;3406;49.902;8.596;2023-06-26T04:06:56;19.70;63.50
6738;DHT22;3406;49.902;8.596;2023-06-26T04:09:24;19.80;63.60
6738;DHT22;3406;49.902;8.596;2023-06-26T04:11:51;19.80;63.60
6738;DHT22;3406;49.902;8.596;2023-06-26T04:14:17;19.80;63.70
6738;DHT22;3406;49.902;8.596;2023-06-26T04:16:45;19.80;63.80
6738;DHT22;3406;49.902;8.596;2023-06-26T04:19:12;19.80;63.80
6738;DHT22;3406;49.902;8.596;2023-06-26T04:21:39;19.70;63.70
6738;DHT22;3406;49.902;8.596;2023-06-26T04:24:06;19.70;63.80
6738;DHT22;3406;49.902;8.596;2023-06-26T04:26:33;19.70;63.80
6738;DHT22;3406;49.902;8.596;2023-06-26T04:29:00;19.80;63.90
6738;DHT22;3406;49.902;8.596;2023-06-26T04:31:26;19.80;63.90
6738;DHT22;3406;49.902;8.596;2023-06-26T04:33:54;19.80;63.90
6738;DHT22;3406;49.902;8.596;2023-06-26T04:36:21;19.80;63.80
6738;DHT22;3406;49.902;8.596;2023-06-26T04:38:48;19.90;63.80
6738;DHT22;3406;49.902;8.596;2023-06-26T04:41:15;19.90;63.70
6738;DHT22;3406;49.902;8.596;2023-06-26T04:43:41;19.90;63.60
6738;DHT22;3406;49.902;8.596;2023-06-26T04:46:08;19.90;63.60
6738;DHT22;3406;49.902;8.596;2023-06-26T04:48:35;20.00;63.50
6738;DHT22;3406;49.902;8.596;2023-06-26T04:51:03;20.10;63.60
6738;DHT22;3406;49.902;8.596;2023-06-26T04:53:29;20.10;63.30
6738;DHT22;3406;49.902;8.596;2023-06-26T04:55:56;20.20;63.30
6738;DHT22;3406;49.902;8.596;2023-06-26T04:58:23;20.20;63.20
6738;DHT22;3406;49.902;8.596;2023-06-26T05:00:49;20.30;63.10
6738;DHT22;3406;49.902;8.596;2023-06-26T05:03:17;20.40;63.10
6738;DHT22;3406;49.902;8.596;2023-06-26T05:05:44;20.40;62.90
6738;DHT22;3406;49.902;8.596;2023-06-26T05:08:16;20.50;62.80
6738;DHT22;3406;49.902;8.596;2023-06-26T05:10:43;20.60;62.90
6738;DHT22;3406;49.902;8.596;2023-06-26T05:13:10;20.70;62.80
6738;DHT22;3406;49.902;8.596;2023-06-26T05:15:37;20.80;62.70
6738;DHT22;3406;49.902;8.596;2023-06-26T05:18:03;21.00;62.80
6738;DHT22;3406;49.902;8.596;2023-06-26T05:20:31;21.00;62.70
6738;DHT22;3406;49.902;8.596;2023-06-26T05:22:58;21.20;62.90
6738;DHT22;3406;49.902;8.596;2023-06-26T05:25:27;21.30;62.90
6738;DHT22;3406;49.902;8.596;2023-06-26T05:27:55;21.40;63.00
6738;DHT22;3406;49.902;8.596;2023-06-26T05:30:22;21.50;63.10
6738;DHT22;3406;49.902;8.596;2023-06-26T05:32:51;21.60;63.10
6738;DHT22;3406;49.902;8.596;2023-06-26T05:35:18;21.80;63.00
6738;DHT22;3406;49.902;8.596;2023-06-26T05:37:48;21.90;62.80
6738;DHT22;3406;49.902;8.596;2023-06-26T05:40:16;22.00;62.70
6738;DHT22;3406;49.902;8.596;2023-06-26T05:42:44;22.10;62.70
6738;DHT22;3406;49.902;8.596;2023-06-26T05:45:11;22.30;62.70
6738;DHT22;3406;49.902;8.596;2023-06-26T05:47:38;22.40;62.50
6738;DHT22;3406;49.902;8.596;2023-06-26T05:50:06;22.60;62.30
6738;DHT22;3406;49.902;8.596;2023-06-26T05:52:33;22.80;62.10
6738;DHT22;3406;49.902;8.596;2023-06-26T05:55:01;22.90;61.80
6738;DHT22;3406;49.902;8.596;2023-06-26T05:57:28;23.10;61.70
6738;DHT22;3406;49.902;8.596;2023-06-26T05:59:57;23.20;61.40
6738;DHT22;3406;49.902;8.596;2023-06-26T06:02:24;23.30;61.00
6738;DHT22;3406;49.902;8.596;2023-06-26T06:04:50;23.50;60.90
6738;DHT22;3406;49.902;8.596;2023-06-26T06:07:17;23.60;60.50
6738;DHT22;3406;49.902;8.596;2023-06-26T06:09:44;23.80;60.20
6738;DHT22;3406;49.902;8.596;2023-06-26T06:12:11;24.00;59.70
6738;DHT22;3406;49.902;8.596;2023-06-26T06:14:37;24.10;59.40
6738;DHT22;3406;49.902;8.596;2023-06-26T06:17:05;24.20;59.20
6738;DHT22;3406;49.902;8.596;2023-06-26T06:19:32;24.20;58.80
6738;DHT22;3406;49.902;8.596;2023-06-26T06:21:58;24.40;58.70
6738;DHT22;3406;49.902;8.596;2023-06-26T06:24:25;24.50;58.30
6738;DHT22;3406;49.902;8.596;2023-06-26T06:26:52;24.50;58.00
6738;DHT22;3406;49.902;8.596;2023-06-26T06:29:18;24.60;57.90
6738;DHT22;3406;49.902;8.596;2023-06-26T06:31:45;24.80;57.60
6738;DHT22;3406;49.902;8.596;2023-06-26T06:34:13;24.80;57.10
6738;DHT22;3406;49.902;8.596;2023-06-26T06:36:40;25.00;57.00
6738;DHT22;3406;49.902;8.596;2023-06-26T06:39:06;25.00;56.60
6738;DHT22;3406;49.902;8.596;2023-06-26T06:41:34;25.20;56.50
6738;DHT22;3406;49.902;8.596;2023-06-26T06:44:00;25.30;56.10
6738;DHT22;3406;49.902;8.596;2023-06-26T06:46:27;25.50;55.90
6738;DHT22;3406;49.902;8.596;2023-06-26T06:48:53;25.60;55.60
6738;DHT22;3406;49.902;8.596;2023-06-26T06:51:21;25.70;55.40
6738;DHT22;3406;49.902;8.596;2023-06-26T06:53:48;25.90;54.90
6738;DHT22;3406;49.902;8.596;2023-06-26T06:56:15;26.00;54.70
6738;DHT22;3406;49.902;8.596;2023-06-26T06:58:42;26.10;54.30
6738;DHT22;3406;49.902;8.596;2023-06-26T07:01:09;26.20;53.90
6738;DHT22;3406;49.902;8.596;2023-06-26T07:03:36;26.50;53.70
6738;DHT22;3406;49.902;8.596;2023-06-26T07:06:02;26.70;53.00
6738;DHT22;3406;49.902;8.596;2023-06-26T07:08:30;26.70;52.60
6738;DHT22;3406;49.902;8.596;2023-06-26T07:10:57;26.70;52.30
6738;DHT22;3406;49.902;8.596;2023-06-26T07:13:24;26.80;52.20
6738;DHT22;3406;49.902;8.596;2023-06-26T07:15:50;26.90;51.90
6738;DHT22;3406;49.902;8.596;2023-06-26T07:18:17;27.10;51.70
6738;DHT22;3406;49.902;8.596;2023-06-26T07:20:44;27.20;51.20
6738;DHT22;3406;49.902;8.596;2023-06-26T07:23:11;27.20;51.00
6738;DHT22;3406;49.902;8.596;2023-06-26T07:25:39;27.20;50.70
6738;DHT22;3406;49.902;8.596;2023-06-26T07:28:10;27.30;50.60
6738;DHT22;3406;49.902;8.596;2023-06-26T07:30:36;27.40;50.40
6738;DHT22;3406;49.902;8.596;2023-06-26T07:33:03;27.50;50.20
6738;DHT22;3406;49.902;8.596;2023-06-26T07:35:30;27.60;50.10
6738;DHT22;3406;49.902;8.596;2023-06-26T07:37:56;27.80;50.00
6738;DHT22;3406;49.902;8.596;2023-06-26T07:40:23;27.80;49.70
6738;DHT22;3406;49.902;8.596;2023-06-26T07:42:51;27.90;49.60
6738;DHT22;3406;49.902;8.596;2023-06-26T07:45:19;28.10;50.10
6738;DHT22;3406;49.902;8.596;2023-06-26T07:47:46;28.10;49.20
6738;DHT22;3406;49.902;8.596;2023-06-26T07:50:12;28.10;48.70
6738;DHT22;3406;49.902;8.596;2023-06-26T07:52:44;28.10;48.50
6738;DHT22;3406;49.902;8.596;2023-06-26T07:55:11;28.10;49.20
6738;DHT22;3406;49.902;8.596;2023-06-26T07:57:37;28.30;48.50
6738;DHT22;3406;49.902;8.596;2023-06-26T08:00:07;28.40;48.70
6738;DHT22;3406;49.902;8.596;2023-06-26T08:02:34;28.60;48.00
6738;DHT22;3406;49.902;8.596;2023-06-26T08:05:00;28.80;47.90
6738;DHT22;3406;49.902;8.596;2023-06-26T08:07:27;28.90;47.60
6738;DHT22;3406;49.902;8.596;2023-06-26T08:09:54;28.90;47.20
6738;DHT22;3406;49.902;8.596;2023-06-26T08:12:20;29.00;47.00
6738;DHT22;3406;49.902;8.596;2023-06-26T08:14:47;29.00;46.90
6738;DHT22;3406;49.902;8.596;2023-06-26T08:17:15;28.90;47.30
6738;DHT22;3406;49.902;8.596;2023-06-26T08:19:42;28.90;46.80
6738;DHT22;3406;49.902;8.596;2023-06-26T08:22:08;28.90;46.90
6738;DHT22;3406;49.902;8.596;2023-06-26T08:24:35;29.00;47.00
6738;DHT22;3406;49.902;8.596;2023-06-26T08:27:02;29.10;46.90
6738;DHT22;3406;49.902;8.596;2023-06-26T08:29:29;29.10;46.70
6738;DHT22;3406;49.902;8.596;2023-06-26T08:31:56;29.00;46.70
6738;DHT22;3406;49.902;8.596;2023-06-26T08:34:24;28.90;46.80
6738;DHT22;3406;49.902;8.596;2023-06-26T08:36:51;28.80;46.90
6738;DHT22;3406;49.902;8.596;2023-06-26T08:39:18;28.80;47.10
6738;DHT22;3406;49.902;8.596;2023-06-26T08:41:45;29.00;47.20
6738;DHT22;3406;49.902;8.596;2023-06-26T08:44:12;29.20;47.10
6738;DHT22;3406;49.902;8.596;2023-06-26T08:46:38;29.30;46.70
6738;DHT22;3406;49.902;8.596;2023-06-26T08:49:14;29.40;46.40
6738;DHT22;3406;49.902;8.596;2023-06-26T08:52:02;29.50;46.30
6738;DHT22;3406;49.902;8.596;2023-06-26T08:54:34;29.40;45.80
6738;DHT22;3406;49.902;8.596;2023-06-26T08:57:05;29.30;45.90
6738;DHT22;3406;49.902;8.596;2023-06-26T08:59:33;29.20;46.00
6738;DHT22;3406;49.902;8.596;2023-06-26T09:02:00;29.10;46.20
6738;DHT22;3406;49.902;8.596;2023-06-26T09:04:28;29.20;46.20
6738;DHT22;3406;49.902;8.596;2023-06-26T09:06:56;29.40;45.80
6738;DHT22;3406;49.902;8.596;2023-06-26T09:09:23;29.50;45.70
6738;DHT22;3406;49.902;8.596;2023-06-26T09:11:49;29.70;45.60
6738;DHT22;3406;49.902;8.596;2023-06-26T09:14:16;29.80;45.10
6738;DHT22;3406;49.902;8.596;2023-06-26T09:16:43;29.70;45.10
6738;DHT22;3406;49.902;8.596;2023-06-26T09:19:10;29.70;45.10
6738;DHT22;3406;49.902;8.596;2023-06-26T09:21:38;29.80;44.40
6738;DHT22;3406;49.902;8.596;2023-06-26T09:24:07;30.00;44.30
6738;DHT22;3406;49.902;8.596;2023-06-26T09:26:35;30.10;43.60
6738;DHT22;3406;49.902;8.596;2023-06-26T09:29:02;30.10;43.10
6738;DHT22;3406;49.902;8.596;2023-06-26T09:31:29;30.20;42.90
6738;DHT22;3406;49.902;8.596;2023-06-26T09:33:58;30.30;42.70
6738;DHT22;3406;49.902;8.596;2023-06-26T09:36:28;30.30;42.70
6738;DHT22;3406;49.902;8.596;2023-06-26T09:38:58;30.40;42.30
6738;DHT22;3406;49.902;8.596;2023-06-26T09:41:26;30.50;43.00
6738;DHT22;3406;49.902;8.596;2023-06-26T09:43:54;30.60;42.40
6738;DHT22;3406;49.902;8.596;2023-06-26T09:46:25;30.70;42.10
6738;DHT22;3406;49.902;8.596;2023-06-26T09:48:58;30.60;42.20
6738;DHT22;3406;49.902;8.596;2023-06-26T09:51:25;30.60;42.30
6738;DHT22;3406;49.902;8.596;2023-06-26T09:53:52;30.70;42.50
6738;DHT22;3406;49.902;8.596;2023-06-26T09:56:19;30.80;42.20
6738;DHT22;3406;49.902;8.596;2023-06-26T09:58:49;30.90;42.10
6738;DHT22;3406;49.902;8.596;2023-06-26T10:01:17;30.90;42.20
6738;DHT22;3406;49.902;8.596;2023-06-26T10:03:44;30.90;42.10
6738;DHT22;3406;49.902;8.596;2023-06-26T10:06:11;30.80;42.30
6738;DHT22;3406;49.902;8.596;2023-06-26T10:08:39;30.60;42.40
6738;DHT22;3406;49.902;8.596;2023-06-26T10:11:08;30.50;42.70
6738;DHT22;3406;49.902;8.596;2023-06-26T10:13:39;30.40;43.60
6738;DHT22;3406;49.902;8.596;2023-06-26T10:16:13;30.40;43.10
6738;DHT22;3406;49.902;8.596;2023-06-26T10:18:44;30.30;43.10
6738;DHT22;3406;49.902;8.596;2023-06-26T10:21:12;30.30;43.40
6738;DHT22;3406;49.902;8.596;2023-06-26T10:23:40;30.30;43.50
6738;DHT22;3406;49.902;8.596;2023-06-26T10:26:09;30.30;43.60
6738;DHT22;3406;49.902;8.596;2023-06-26T10:28:36;30.40;43.70
6738;DHT22;3406;49.902;8.596;2023-06-26T10:31:04;30.50;43.40
6738;DHT22;3406;49.902;8.596;2023-06-26T10:33:34;30.50;43.50
6738;DHT22;3406;49.902;8.596;2023-06-26T10:36:20;30.40;43.60
6738;DHT22;3406;49.902;8.596;2023-06-26T10:38:49;30.20;43.80
6738;DHT22;3406;49.902;8.596;2023-06-26T10:41:20;30.20;44.00
6738;DHT22;3406;49.902;8.596;2023-06-26T10:43:49;30.00;44.00
6738;DHT22;3406;49.902;8.596;2023-06-26T10:46:18;29.80;44.30
6738;DHT22;3406;49.902;8.596;2023-06-26T10:48:57;29.70;44.60
6738;DHT22;3406;49.902;8.596;2023-06-26T10:51:25;29.80;44.70
6738;DHT22;3406;49.902;8.596;2023-06-26T10:53:54;30.00;44.40
6738;DHT22;3406;49.902;8.596;2023-06-26T10:56:20;30.10;44.20
6738;DHT22;3406;49.902;8.596;2023-06-26T10:58:47;30.30;44.10
6738;DHT22;3406;49.902;8.596;2023-06-26T11:01:19;30.50;43.80
6738;DHT22;3406;49.902;8.596;2023-06-26T11:03:48;30.60;43.70
6738;DHT22;3406;49.902;8.596;2023-06-26T11:06:18;30.60;43.30
6738;DHT22;3406;49.902;8.596;2023-06-26T11:08:45;30.50;43.30
6738;DHT22;3406;49.902;8.596;2023-06-26T11:11:12;30.50;43.50
6738;DHT22;3406;49.902;8.596;2023-06-26T11:13:39;30.60;43.40
6738;DHT22;3406;49.902;8.596;2023-06-26T11:16:06;30.80;43.20
6738;DHT22;3406;49.902;8.596;2023-06-26T11:18:33;30.80;42.90
6738;DHT22;3406;49.902;8.596;2023-06-26T11:21:05;30.90;42.90
6738;DHT22;3406;49.902;8.596;2023-06-26T11:23:34;31.00;43.10
6738;DHT22;3406;49.902;8.596;2023-06-26T11:26:15;31.20;42.90
6738;DHT22;3406;49.902;8.596;2023-06-26T11:28:49;31.40;42.60
6738;DHT22;3406;49.902;8.596;2023-06-26T11:31:26;31.50;42.10
6738;DHT22;3406;49.902;8.596;2023-06-26T11:33:53;31.60;42.00
6738;DHT22;3406;49.902;8.596;2023-06-26T11:36:20;31.50;41.60
6738;DHT22;3406;49.902;8.596;2023-06-26T11:38:54;31.30;41.60
6738;DHT22;3406;49.902;8.596;2023-06-26T11:41:21;31.20;41.80
6738;DHT22;3406;49.902;8.596;2023-06-26T11:43:49;31.10;41.70
6738;DHT22;3406;49.902;8.596;2023-06-26T11:46:16;31.20;41.80
6738;DHT22;3406;49.902;8.596;2023-06-26T11:48:43;31.30;41.30
6738;DHT22;3406;49.902;8.596;2023-06-26T11:51:12;31.30;40.70
6738;DHT22;3406;49.902;8.596;2023-06-26T11:53:39;31.40;40.40
6738;DHT22;3406;49.902;8.596;2023-06-26T11:56:12;31.40;40.10
6738;DHT22;3406;49.902;8.596;2023-06-26T11:58:57;31.50;39.70
6738;DHT22;3406;49.902;8.596;2023-06-26T12:01:25;31.50;38.70
6738;DHT22;3406;49.902;8.596;2023-06-26T12:03:54;31.40;38.40
6738;DHT22;3406;49.902;8.596;2023-06-26T12:06:21;31.30;38.50
6738;DHT22;3406;49.902;8.596;2023-06-26T12:08:48;31.40;38.60
6738;DHT22;3406;49.902;8.596;2023-06-26T12:11:17;31.50;38.10
6738;DHT22;3406;49.902;8.596;2023-06-26T12:13:44;31.60;37.80
6738;DHT22;3406;49.902;8.596;2023-06-26T12:16:12;31.60;37.20
6738;DHT22;3406;49.902;8.596;2023-06-26T12:18:40;31.60;36.60
6738;DHT22;3406;49.902;8.596;2023-06-26T12:21:07;31.60;36.50
6738;DHT22;3406;49.902;8.596;2023-06-26T12:23:38;31.60;36.20
6738;DHT22;3406;49.902;8.596;2023-06-26T12:26:19;31.60;36.10
6738;DHT22;3406;49.902;8.596;2023-06-26T12:28:46;31.50;36.00
6738;DHT22;3406;49.902;8.596;2023-06-26T12:31:14;31.40;36.10
6738;DHT22;3406;49.902;8.596;2023-06-26T12:33:42;31.40;36.10
6738;DHT22;3406;49.902;8.596;2023-06-26T12:36:10;31.40;36.00
6738;DHT22;3406;49.902;8.596;2023-06-26T12:38:37;31.40;35.90
6738;DHT22;3406;49.902;8.596;2023-06-26T12:41:04;31.40;36.20
6738;DHT22;3406;49.902;8.596;2023-06-26T12:43:32;31.50;36.20
6738;DHT22;3406;49.902;8.596;2023-06-26T12:46:04;31.60;36.40
6738;DHT22;3406;49.902;8.596;2023-06-26T12:48:38;31.40;36.30
6738;DHT22;3406;49.902;8.596;2023-06-26T12:51:09;31.40;36.60
6738;DHT22;3406;49.902;8.596;2023-06-26T12:53:36;31.60;36.10
6738;DHT22;3406;49.902;8.596;2023-06-26T12:56:05;31.80;35.90
6738;DHT22;3406;49.902;8.596;2023-06-26T12:58:33;31.90;35.80
6738;DHT22;3406;49.902;8.596;2023-06-26T13:00:59;32.10;35.20
6738;DHT22;3406;49.902;8.596;2023-06-26T13:03:26;32.00;34.70
6738;DHT22;3406;49.902;8.596;2023-06-26T13:05:53;31.90;34.30
6738;DHT22;3406;49.902;8.596;2023-06-26T13:08:19;31.60;33.70
6738;DHT22;3406;49.902;8.596;2023-06-26T13:10:46;31.50;33.40
6738;DHT22;3406;49.902;8.596;2023-06-26T13:13:13;31.40;33.50
6738;DHT22;3406;49.902;8.596;2023-06-26T13:15:41;31.40;33.40
6738;DHT22;3406;49.902;8.596;2023-06-26T13:18:07;31.50;33.00
6738;DHT22;3406;49.902;8.596;2023-06-26T13:20:34;31.70;32.80
6738;DHT22;3406;49.902;8.596;2023-06-26T13:23:01;31.70;32.60
6738;DHT22;3406;49.902;8.596;2023-06-26T13:25:28;31.80;32.50
6738;DHT22;3406;49.902;8.596;2023-06-26T13:27:55;31.70;32.60
6738;DHT22;3406;49.902;8.596;2023-06-26T13:30:21;31.70;32.80
6738;DHT22;3406;49.902;8.596;2023-06-26T13:32:50;31.70;34.40
6738;DHT22;3406;49.902;8.596;2023-06-26T13:35:16;31.50;37.60
6738;DHT22;3406;49.902;8.596;2023-06-26T13:37:43;31.40;39.10
6738;DHT22;3406;49.902;8.596;2023-06-26T13:40:11;31.20;40.20
6738;DHT22;3406;49.902;8.596;2023-06-26T13:42:38;31.10;41.00
6738;DHT22;3406;49.902;8.596;2023-06-26T13:45:05;31.00;41.70
6738;DHT22;3406;49.902;8.596;2023-06-26T13:47:32;30.90;42.30
6738;DHT22;3406;49.902;8.596;2023-06-26T13:50:01;30.80;42.80
6738;DHT22;3406;49.902;8.596;2023-06-26T13:52:27;30.70;43.00
6738;DHT22;3406;49.902;8.596;2023-06-26T13:54:54;30.50;43.10
6738;DHT22;3406;49.902;8.596;2023-06-26T13:57:21;30.50;43.20
6738;DHT22;3406;49.902;8.596;2023-06-26T13:59:48;30.50;43.40
6738;DHT22;3406;49.902;8.596;2023-06-26T14:02:15;30.40;43.80
6738;DHT22;3406;49.902;8.596;2023-06-26T14:04:41;30.30;43.90
6738;DHT22;3406;49.902;8.596;2023-06-26T14:07:10;30.30;43.90
6738;DHT22;3406;49.902;8.596;2023-06-26T14:09:36;30.20;43.90
6738;DHT22;3406;49.902;8.596;2023-06-26T14:12:03;30.30;44.00
6738;DHT22;3406;49.902;8.596;2023-06-26T14:14:31;30.30;43.80
6738;DHT22;3406;49.902;8.596;2023-06-26T14:16:57;30.40;43.20
6738;DHT22;3406;49.902;8.596;2023-06-26T14:19:25;30.50;42.00
6738;DHT22;3406;49.902;8.596;2023-06-26T14:21:52;30.50;41.40
6738;DHT22;3406;49.902;8.596;2023-06-26T14:24:20;30.60;41.20
6738;DHT22;3406;49.902;8.596;2023-06-26T14:26:47;30.70;40.60
6738;DHT22;3406;49.902;8.596;2023-06-26T14:29:13;30.60;40.40
6738;DHT22;3406;49.902;8.596;2023-06-26T14:31:42;30.60;40.80
6738;DHT22;3406;49.902;8.596;2023-06-26T14:34:09;30.50;40.50
6738;DHT22;3406;49.902;8.596;2023-06-26T14:36:35;30.60;40.50
6738;DHT22;3406;49.902;8.596;2023-06-26T14:39:03;30.50;40.60
6738;DHT22;3406;49.902;8.596;2023-06-26T14:41:31;30.60;40.60
6738;DHT22;3406;49.902;8.596;2023-06-26T14:43:57;30.60;40.40
6738;DHT22;3406;49.902;8.596;2023-06-26T14:46:24;30.70;40.30
6738;DHT22;3406;49.902;8.596;2023-06-26T14:48:51;30.80;40.10
6738;DHT22;3406;49.902;8.596;2023-06-26T14:51:17;30.80;39.70
6738;DHT22;3406;49.902;8.596;2023-06-26T14:53:45;30.70;39.90
6738;DHT22;3406;49.902;8.596;2023-06-26T14:56:13;30.50;40.30
6738;DHT22;3406;49.902;8.596;2023-06-26T14:58:41;30.30;40.60
6738;DHT22;3406;49.902;8.596;2023-06-26T15:01:07;30.20;40.90
6738;DHT22;3406;49.902;8.596;2023-06-26T15:03:34;30.20;41.30
6738;DHT22;3406;49.902;8.596;2023-06-26T15:06:01;30.00;41.10
6738;DHT22;3406;49.902;8.596;2023-06-26T15:08:27;30.00;41.10
6738;DHT22;3406;49.902;8.596;2023-06-26T15:10:54;29.90;41.10
6738;DHT22;3406;49.902;8.596;2023-06-26T15:13:21;29.90;41.00
6738;DHT22;3406;49.902;8.596;2023-06-26T15:15:49;29.80;40.90
6738;DHT22;3406;49.902;8.596;2023-06-26T15:18:15;29.60;41.10
6738;DHT22;3406;49.902;8.596;2023-06-26T15:20:42;29.60;40.80
6738;DHT22;3406;49.902;8.596;2023-06-26T15:23:09;29.50;40.10
6738;DHT22;3406;49.902;8.596;2023-06-26T15:25:35;29.50;39.80
6738;DHT22;3406;49.902;8.596;2023-06-26T15:28:02;29.50;39.80
6738;DHT22;3406;49.902;8.596;2023-06-26T15:30:29;29.50;39.70
6738;DHT22;3406;49.902;8.596;2023-06-26T15:32:57;29.60;39.10
6738;DHT22;3406;49.902;8.596;2023-06-26T15:35:24;29.50;38.80
6738;DHT22;3406;49.902;8.596;2023-06-26T15:37:50;29.50;38.80
6738;DHT22;3406;49.902;8.596;2023-06-26T15:40:17;29.40;38.80
6738;DHT22;3406;49.902;8.596;2023-06-26T15:42:48;29.20;39.10
6738;DHT22;3406;49.902;8.596;2023-06-26T15:45:15;29.10;39.30
6738;DHT22;3406;49.902;8.596;2023-06-26T15:47:43;29.10;39.50
6738;DHT22;3406;49.902;8.596;2023-06-26T15:50:11;29.20;39.40
6738;DHT22;3406;49.902;8.596;2023-06-26T15:52:38;29.40;39.10
6738;DHT22;3406;49.902;8.596;2023-06-26T15:55:05;29.30;38.90
6738;DHT22;3406;49.902;8.596;2023-06-26T15:57:33;29.40;39.00
6738;DHT22;3406;49.902;8.596;2023-06-26T16:00:00;29.50;38.80
6738;DHT22;3406;49.902;8.596;2023-06-26T16:02:26;29.40;38.50
6738;DHT22;3406;49.902;8.596;2023-06-26T16:04:53;29.40;38.10